Thunder radar more information blitzortung!


Radar de pluja more information rain snow radar


Visita la nostra xarxa de llocs de meteo:

Template documentation
and downloads

And another site



No particular awareness of the weather is required.    There are no Weather-warnings

Pagina Historial Weather Underground text

Diari Resum Agost 21, 2017 Unitats:  Imperial    Mètric   Tant
« Previous Dia
SegĂźent Dia »
Diari Setmana Mensual Anual Personalitzada
  Maxima: Minima: Media:
Temperatura: 90.9 °F 66.7 °F 79.3 °F
Punt de rosada: 68.2 °F 60.4 °F 64.8 °F
Humitat: 87 % 38 % 63 %
Wind Speed: 11.5 mph 0 mph 3.6 mph
RĂ fegues de vent: 13 mph - -
Vent:- - SSE
Pression baro: 30.1 in 30 in -
Precipitacions: 0 in    
Historical Graphs
 
 
Dades de taula per Agost 21, 2017
Temps Temperatura Punt de rosada Pression baro Vent Wind Speed RĂ fegues de vent Humitat Rainfall Rate (Hourly)
00:04 72.1 °F 64.2 °F 30.1 in SW 2.3 mph 2.3 mph 76 % 0 in
00:05 68.9 °F 64.2 °F 30.1 in Calm   2 mph 85 % 0 in
00:15 68.5 °F 63.5 °F 30.1 in ENE 1 mph 2 mph 84 % 0 in
00:25 68.5 °F 63.9 °F 30.1 in Calm   1 mph 85 % 0 in
00:35 68.5 °F 63.5 °F 30.1 in Calm   3 mph 84 % 0 in
00:45 68.4 °F 63.7 °F 30.1 in Calm   1 mph 85 % 0 in
00:55 68.2 °F 63.5 °F 30.1 in Calm   1 mph 85 % 0 in
01:05 68 °F 63.3 °F 30.1 in Calm     85 % 0 in
01:15 67.8 °F 63.5 °F 30.1 in WSW 1 mph 2 mph 86 % 0 in
01:25 67.8 °F 63.5 °F 30.1 in SW 1 mph 2 mph 86 % 0 in
01:35 67.8 °F 63.5 °F 30.1 in Calm   1 mph 86 % 0 in
01:45 67.6 °F 63.3 °F 30.1 in SW 1 mph 2 mph 86 % 0 in
01:55 67.5 °F 63.1 °F 30.1 in Calm     86 % 0 in
02:05 67.3 °F 63 °F 30.1 in Calm   1 mph 86 % 0 in
02:15 67.3 °F 63 °F 30.1 in Calm   2 mph 86 % 0 in
02:25 67.3 °F 63 °F 30.1 in WSW 1 mph 2 mph 86 % 0 in
02:35 67.3 °F 63 °F 30.1 in Calm   1 mph 86 % 0 in
02:45 67.1 °F 62.8 °F 30.1 in WSW 1 mph 1 mph 86 % 0 in
02:55 67.1 °F 62.8 °F 30.1 in Calm     86 % 0 in
03:05 66.9 °F 62.6 °F 30.1 in Calm     86 % 0 in
03:15 66.7 °F 62.4 °F 30.1 in Calm   1 mph 86 % 0 in
03:25 66.7 °F 62.8 °F 30.1 in Calm     87 % 0 in
03:35 66.7 °F 62.8 °F 30.1 in Calm     87 % 0 in
03:45 66.9 °F 63 °F 30.1 in Calm   1 mph 87 % 0 in
03:55 67.1 °F 62.8 °F 30.1 in WSW 1 mph 1 mph 86 % 0 in
04:05 67.3 °F 63.3 °F 30.1 in Calm   2 mph 87 % 0 in
04:15 67.5 °F 63.1 °F 30.1 in SW 2 mph 3 mph 86 % 0 in
04:25 68 °F 63.3 °F 30.1 in SW 1 mph 2 mph 85 % 0 in
04:35 68.7 °F 64 °F 30.1 in SW 1 mph 2 mph 85 % 0 in
04:45 69.1 °F 64 °F 30.1 in Calm   1 mph 84 % 0 in
04:55 69.6 °F 64.6 °F 30.1 in Calm   1 mph 84 % 0 in
05:05 70.3 °F 64.9 °F 30.1 in SE 1 mph 2 mph 83 % 0 in
05:15 72 °F 66.2 °F 30.1 in NNE 2 mph 2 mph 82 % 0 in
05:25 72.7 °F 65.8 °F 30.1 in North 1 mph 3 mph 79 % 0 in
05:35 72.9 °F 65.1 °F 30.1 in NE 3 mph 4 mph 77 % 0 in
05:45 73.8 °F 65.3 °F 30.1 in NE 2 mph 4 mph 75 % 0 in
10:49 80.6 °F 67.3 °F 30.1 in WSW 2.3 mph 2.3 mph 64 % 0 in
10:54 80.1 °F 66.4 °F 30.1 in East 2.6 mph 2.6 mph 63 % 0 in
10:59 78.3 °F 64.2 °F 30.1 in South 5.8 mph 5.8 mph 62 % 0 in
11:04 79.9 °F 66.6 °F 30.1 in ESE 3.5 mph 3.5 mph 64 % 0 in
11:09 79.5 °F 65.8 °F 30.1 in SE 4.6 mph 4.6 mph 63 % 0 in
11:14 81.1 °F 67.3 °F 30.1 in ESE 2.3 mph 2.3 mph 63 % 0 in
11:19 81.5 °F 66.7 °F 30.1 in ESE 2.3 mph 2.3 mph 61 % 0 in
11:24 82.2 °F 67.5 °F 30.1 in West 2.3 mph 2.3 mph 61 % 0 in
11:29 82.4 °F 67.1 °F 30.1 in East 3.5 mph 3.5 mph 60 % 0 in
11:34 82.4 °F 67.1 °F 30.1 in WSW 4.6 mph 4.6 mph 60 % 0 in
11:39 82.2 °F 66.6 °F 30.1 in ENE 3.5 mph 3.5 mph 59 % 0 in
11:44 82.4 °F 66 °F 30.1 in NE 3.5 mph 3.5 mph 58 % 0 in
11:49 82 °F 65.8 °F 30.1 in ENE 3.5 mph 3.5 mph 58 % 0 in
11:54 82 °F 64.8 °F 30.1 in South 5.8 mph 5.8 mph 56 % 0 in
11:59 83.7 °F 66.4 °F 30.1 in ESE 2.4 mph 2.4 mph 56 % 0 in
12:04 83.7 °F 66.4 °F 30.1 in NNE 2.3 mph 2.3 mph 56 % 0 in
12:09 83.8 °F 66.6 °F 30.1 in SSE 2.3 mph 2.3 mph 56 % 0 in
12:14 84.2 °F 65.8 °F 30.1 in WSW 3.5 mph 3.5 mph 54 % 0 in
12:19 84.9 °F 65.8 °F 30.1 in SW 2.9 mph 2.9 mph 53 % 0 in
12:24 85.6 °F 65.5 °F 30.1 in SE 2.3 mph 2.4 mph 51 % 0 in
12:29 86 °F 65.8 °F 30 in WSW 3.5 mph 3.5 mph 51 % 0 in
12:34 86.2 °F 65.5 °F 30 in South 3.6 mph 3.6 mph 50 % 0 in
12:39 86.4 °F 64.9 °F 30 in SSE 3.1 mph 3.1 mph 49 % 0 in
12:44 87.6 °F 65.5 °F 30.1 in South 6.9 mph 6.9 mph 48 % 0 in
12:49 87.1 °F 65.7 °F 30.1 in SW 5.8 mph 5.8 mph 49 % 0 in
12:54 86.7 °F 65.3 °F 30.1 in SSW 3.5 mph 3.5 mph 49 % 0 in
12:59 86 °F 62.8 °F 30.1 in ESE 3.6 mph 3.6 mph 46 % 0 in
13:04 85.5 °F 62.2 °F 30.1 in WSW 2.3 mph 2.3 mph 46 % 0 in
13:09 86.5 °F 64.6 °F 30.1 in West 5.8 mph 5.8 mph 48 % 0 in
13:10 86.5 °F 64.6 °F 30.1 in WSW 5.9 mph 5.9 mph 48 % 0 in
13:15 87.3 °F 64 °F 30.1 in SSE 2.4 mph 2.4 mph 46 % 0 in
13:20 88.9 °F 64.8 °F 30.1 in WSW 6 mph 6 mph 45 % 0 in
13:25 88.2 °F 60.8 °F 30.1 in SE 4.6 mph 4.6 mph 40 % 0 in
13:30 88.3 °F 61 °F 30.1 in NE 3.5 mph 3.5 mph 40 % 0 in
13:35 87.4 °F 60.8 °F 30.1 in East 4.6 mph 4.6 mph 41 % 0 in
13:40 87.1 °F 60.4 °F 30.1 in East 5.8 mph 5.8 mph 41 % 0 in
13:45 87.8 °F 61.9 °F 30.1 in South 6 mph 6 mph 42 % 0 in
13:50 89.1 °F 62.2 °F 30.1 in NNW 6.9 mph 6.9 mph 41 % 0 in
13:55 89.1 °F 62.2 °F 30.1 in WSW 3.5 mph 3.5 mph 41 % 0 in
14:00 89.8 °F 62.2 °F 30 in South 4.6 mph 4.6 mph 40 % 0 in
14:05 90.3 °F 63.3 °F 30 in SSW 5 mph 7 mph 41 % 0 in
14:10 90.5 °F 63.7 °F 30 in West 5.8 mph 5.8 mph 41 % 0 in
14:15 89.8 °F 63 °F 30 in NE 2.3 mph 2.3 mph 41 % 0 in
14:20 90.7 °F 61.5 °F 30 in SSW 7.8 mph 7.8 mph 38 % 0 in
14:25 89.8 °F 61.5 °F 30 in ESE 5.8 mph 5.8 mph 39 % 0 in
14:30 90.1 °F 63.3 °F 30 in ESE 6.9 mph 6.9 mph 41 % 0 in
14:35 89.1 °F 63.7 °F 30 in NE 5.8 mph 5.8 mph 43 % 0 in
14:40 89.4 °F 64 °F 30 in ESE 4.6 mph 4.6 mph 43 % 0 in
14:45 88.7 °F 64 °F 30 in SE 3 mph 6 mph 44 % 0 in
14:50 86.7 °F 64 °F 30 in ESE 8.1 mph 8.1 mph 47 % 0 in
14:55 86.2 °F 64.8 °F 30 in ESE 7 mph 11 mph 49 % 0 in
15:00 86 °F 64.6 °F 30 in East 6.2 mph 6.2 mph 49 % 0 in
15:05 86.4 °F 65.5 °F 30 in East 8.7 mph 8.7 mph 50 % 0 in
15:10 85.6 °F 65.5 °F 30 in East 5 mph 13 mph 51 % 0 in
15:15 85.6 °F 66 °F 30 in ESE 11.5 mph 11.5 mph 52 % 0 in
15:20 85.3 °F 66.2 °F 30 in ESE 8.5 mph 8.5 mph 53 % 0 in
15:25 85.1 °F 66.6 °F 30 in East 7.4 mph 7.4 mph 54 % 0 in
15:30 85.5 °F 66.4 °F 30 in ESE 9.2 mph 9.2 mph 53 % 0 in
15:35 85.1 °F 66 °F 30 in NNE 8.1 mph 8.1 mph 53 % 0 in
15:40 85.1 °F 66 °F 30 in ESE 5.8 mph 5.8 mph 53 % 0 in
15:45 85.3 °F 66.2 °F 30 in South 8.1 mph 8.1 mph 53 % 0 in
15:50 86.7 °F 66.9 °F 30 in SSW 4.6 mph 4.6 mph 52 % 0 in
15:55 86.9 °F 67.3 °F 30 in WSW 3.6 mph 3.6 mph 52 % 0 in
16:00 87.1 °F 66.7 °F 30 in SSW 8.1 mph 8.1 mph 51 % 0 in
16:05 86.2 °F 66.6 °F 30 in South 5.8 mph 5.8 mph 52 % 0 in
16:10 87.8 °F 66.7 °F 30 in SW 5.8 mph 5.8 mph 50 % 0 in
16:15 88.7 °F 67.6 °F 30 in WSW 6.2 mph 6.2 mph 50 % 0 in
16:20 88.9 °F 67.3 °F 30 in South 5.8 mph 5.8 mph 49 % 0 in
16:25 89.6 °F 67.8 °F 30 in SW 5.8 mph 5.8 mph 49 % 0 in
16:30 90 °F 68.2 °F 30 in SW 8.1 mph 8.1 mph 49 % 0 in
16:35 90.5 °F 68.2 °F 30 in South 5.8 mph 5.8 mph 48 % 0 in
16:36 90.5 °F 68.2 °F 30 in WSW 5.8 mph 5.8 mph 48 % 0 in
16:41 90.5 °F 68.2 °F 30 in SW 9.2 mph 9.2 mph 48 % 0 in
16:46 90.3 °F 68 °F 30 in West 5.9 mph 5.9 mph 48 % 0 in
16:51 90.3 °F 67.5 °F 30 in ESE 4.6 mph 4.6 mph 47 % 0 in
16:56 90.5 °F 67.5 °F 30 in SSW 6.2 mph 6.2 mph 47 % 0 in
17:01 90.9 °F 67.8 °F 30 in South 6.9 mph 6.9 mph 47 % 0 in
17:06 90.1 °F 67.3 °F 30 in ENE 3.5 mph 3.5 mph 47 % 0 in
17:11 88.9 °F 66.7 °F 30 in ESE 4.9 mph 5.6 mph 48 % 0 in
17:16 88.5 °F 66.4 °F 30 in East 4.6 mph 4.6 mph 48 % 0 in
17:21 88.3 °F 66.7 °F 30 in WSW 2.9 mph 2.9 mph 49 % 0 in
17:26 88.9 °F 66.7 °F 30 in ESE 3.5 mph 3.5 mph 48 % 0 in
17:31 87.3 °F 66.4 °F 30 in ESE 8.5 mph 8.5 mph 50 % 0 in
17:36 85.5 °F 65.8 °F 30 in ESE 8.1 mph 8.5 mph 52 % 0 in
17:41 84.7 °F 65.7 °F 30 in ESE 11.5 mph 11.5 mph 53 % 0 in
17:46 85.6 °F 67.1 °F 30 in ESE 5.8 mph 5.8 mph 54 % 0 in
17:51 85.1 °F 66 °F 30 in West 5.8 mph 5.8 mph 53 % 0 in
17:56 84 °F 66 °F 30 in WSW 4.6 mph 4.6 mph 55 % 0 in
18:01 85.5 °F 66.9 °F 30 in West 3.5 mph 4 mph 54 % 0 in
18:06 85.6 °F 66.6 °F 30 in NNE 3.5 mph 3.5 mph 53 % 0 in
18:11 85.6 °F 66.6 °F 30 in ESE 3.5 mph 3.5 mph 53 % 0 in
18:16 86.2 °F 66.9 °F 30 in SSW 5.8 mph 5.8 mph 53 % 0 in
18:21 87.1 °F 67.3 °F 30 in SW 4.6 mph 4.6 mph 52 % 0 in
18:26 87.1 °F 67.3 °F 30 in SSW 6.9 mph 6.9 mph 52 % 0 in
18:31 86.9 °F 67.3 °F 30 in SW 5.8 mph 5.8 mph 52 % 0 in
18:36 86.4 °F 66.7 °F 30 in SSW 5.9 mph 5.9 mph 52 % 0 in
18:41 85.5 °F 65.8 °F 30 in SSW 8.1 mph 8.1 mph 52 % 0 in
18:46 84.9 °F 65.3 °F 30 in WSW 6.9 mph 6.9 mph 52 % 0 in
18:51 85.1 °F 65.5 °F 30 in SW 5.8 mph 5.8 mph 52 % 0 in
18:56 84.6 °F 64.9 °F 30 in West 8.1 mph 8.1 mph 52 % 0 in
18:57 84.4 °F 64.8 °F 30 in WSW 5.8 mph 5.8 mph 52 % 0 in
19:02 84 °F 65.7 °F 30 in SW 9.2 mph 9.2 mph 54 % 0 in
19:07 83.8 °F 65.5 °F 30 in SW 9.2 mph 9.2 mph 54 % 0 in
19:12 83.3 °F 64.9 °F 30 in SW 4.9 mph 4.9 mph 54 % 0 in
19:17 83.3 °F 65.5 °F 30 in SSW 4.6 mph 4.6 mph 55 % 0 in
19:22 82.9 °F 65.1 °F 30 in West 9.2 mph 9.2 mph 55 % 0 in
19:27 82.4 °F 65.1 °F 30 in WSW 7.1 mph 7.1 mph 56 % 0 in
19:32 82 °F 64.8 °F 30 in SW 6.9 mph 6.9 mph 56 % 0 in
19:37 81.9 °F 65.1 °F 30 in SW 6.9 mph 6.9 mph 57 % 0 in
19:42 81.5 °F 64.8 °F 30 in SW 8.1 mph 8.1 mph 57 % 0 in
19:47 81.7 °F 64.9 °F 30 in SW 4.6 mph 4.6 mph 57 % 0 in
19:52 81.5 °F 65.3 °F 30 in SW 4.9 mph 4.9 mph 58 % 0 in
19:57 80.8 °F 64.6 °F 30 in SW 6.9 mph 6.9 mph 58 % 0 in
20:02 80.8 °F 64.6 °F 30 in SSW 2.3 mph 2.3 mph 58 % 0 in
20:07 80.6 °F 64.9 °F 30 in SW 4.6 mph 4.6 mph 59 % 0 in
20:12 80.2 °F 65.1 °F 30 in SSE 4.6 mph 4.6 mph 60 % 0 in
20:15 73.9 °F 63.9 °F 30 in SW 2 mph 2 mph 71 % 0 in
20:17 79.5 °F 64.4 °F 30 in Calm     60 % 0 in
20:22 79.3 °F 64.8 °F 30 in East 3.6 mph 3.6 mph 61 % 0 in
20:25 73.6 °F 64 °F 30 in SW 2 mph 2 mph 72 % 0 in
20:27 78.8 °F 64.2 °F 30 in West 1.6 mph 2 mph 61 % 0 in
20:32 78.1 °F 63.5 °F 30 in East 4.6 mph 4.6 mph 61 % 0 in
20:35 73.4 °F 64.2 °F 30 in SW 1 mph 2 mph 73 % 0 in
20:37 77.7 °F 63.7 °F 30 in ESE 4.9 mph 4.9 mph 62 % 0 in
20:42 77.4 °F 63.9 °F 30 in ENE 3.5 mph 3.5 mph 63 % 0 in
20:45 73.2 °F 64.8 °F 30 in WSW 1 mph 1 mph 75 % 0 in
20:47 77.2 °F 63.7 °F 30 in East 4.6 mph 4.6 mph 63 % 0 in
20:52 77 °F 63.9 °F 30 in ESE 3.5 mph 3.5 mph 64 % 0 in
20:55 73 °F 64.6 °F 30 in WSW 1 mph 2 mph 75 % 0 in
20:57 76.8 °F 64.2 °F 30 in East 3.6 mph 3.6 mph 65 % 0 in
21:02 76.5 °F 63.9 °F 30 in ESE 3.5 mph 3.5 mph 65 % 0 in
21:05 73 °F 64.9 °F 30 in WSW 2 mph 3 mph 76 % 0 in
21:07 76.3 °F 63.7 °F 30 in ENE 4.6 mph 4.6 mph 65 % 0 in
21:12 76.1 °F 63.9 °F 30 in NE 4.6 mph 4.6 mph 66 % 0 in
21:15 72.9 °F 64.8 °F 30 in WSW 1 mph 2 mph 76 % 0 in
21:17 75.9 °F 63.7 °F 30 in NE 5.8 mph 5.8 mph 66 % 0 in
21:22 75.7 °F 63.7 °F 30 in ENE 8.1 mph 8.1 mph 66 % 0 in
21:25 72.7 °F 65.1 °F 30 in WSW 1 mph 3 mph 77 % 0 in
21:27 75.7 °F 64 °F 30 in ENE 4.6 mph 4.6 mph 67 % 0 in
21:32 75.6 °F 63.9 °F 30 in ENE 3.5 mph 3.5 mph 67 % 0 in
21:35 72.3 °F 65.1 °F 30 in Calm   2 mph 78 % 0 in
21:37 75.4 °F 63.7 °F 30 in ENE 3.5 mph 3.5 mph 67 % 0 in
21:42 75.2 °F 63.9 °F 30 in East 3.5 mph 3.5 mph 68 % 0 in
21:45 72 °F 64.8 °F 30 in SW 2 mph 2 mph 78 % 0 in
21:47 75.2 °F 63.9 °F 30 in NNE 2.4 mph 2.4 mph 68 % 0 in
21:52 75 °F 64.2 °F 30 in ENE 3.5 mph 3.5 mph 69 % 0 in
21:55 71.6 °F 64.8 °F 30 in SW 1 mph 2 mph 79 % 0 in
21:57 74.8 °F 64 °F 30 in NNE 4.6 mph 4.6 mph 69 % 0 in
22:02 74.8 °F 64 °F 30 in East 2.3 mph 2.3 mph 69 % 0 in
22:05 71.4 °F 64.6 °F 30 in SW 1 mph 2 mph 79 % 0 in
22:07 74.8 °F 64 °F 30 in NE 3.5 mph 3.5 mph 69 % 0 in
22:12 74.7 °F 63.9 °F 30 in ENE 2.3 mph 2.3 mph 69 % 0 in
22:15 71.2 °F 64.8 °F 30 in Calm   2 mph 80 % 0 in
22:17 74.7 °F 63.9 °F 30 in NE 4.3 mph 4.3 mph 69 % 0 in
22:22 74.7 °F 63.9 °F 30 in East 2.6 mph 2.6 mph 69 % 0 in
22:25 71.1 °F 64.6 °F 30 in SW 1 mph 2 mph 80 % 0 in
22:27 74.5 °F 63.7 °F 30 in NNE 1.6 mph 1.6 mph 69 % 0 in
22:32 74.3 °F 63.5 °F 30 in ENE 1.2 mph 1.4 mph 69 % 0 in
22:35 70.9 °F 64.8 °F 30 in Calm   2 mph 81 % 0 in
22:37 74.1 °F 63 °F 30 in NE 2.4 mph 2.4 mph 68 % 0 in
22:42 74.1 °F 63 °F 30 in ENE 2.3 mph 2.3 mph 68 % 0 in
22:45 70.7 °F 64.6 °F 30 in SW 1 mph 2 mph 81 % 0 in
22:47 74.1 °F 63 °F 30 in NE 2.3 mph 2.3 mph 68 % 0 in
22:52 73.9 °F 62.8 °F 30 in NE 2.3 mph   68 % 0 in
22:55 70.7 °F 64.9 °F 30 in Calm   1 mph 82 % 0 in
22:57 73.9 °F 62.8 °F 30 in NE 2.3 mph 2.3 mph 68 % 0 in
23:02 73.8 °F 62.4 °F 30 in ENE 2.3 mph 2.3 mph 68 % 0 in
23:05 70.5 °F 64.8 °F 30 in Calm   2 mph 82 % 0 in
23:07 73.9 °F 62.8 °F 30 in ENE 2.3 mph 2.3 mph 68 % 0 in
23:12 73.9 °F 62.8 °F 30.1 in East 1.2 mph   68 % 0 in
23:15 70.5 °F 64.8 °F 30 in WSW 1 mph 1 mph 82 % 0 in
23:17 73.8 °F 62.4 °F 30.1 in NE 1.6 mph 1.6 mph 68 % 0 in
23:22 73.9 °F 62.8 °F 30.1 in NE 1.2 mph 1.2 mph 68 % 0 in
23:25 70.5 °F 65.1 °F 30 in Calm   1 mph 83 % 0 in
23:27 73.9 °F 62.8 °F 30 in NE 1.2 mph 1.2 mph 68 % 0 in
23:32 73.9 °F 62.8 °F 30 in Calm     68 % 0 in
23:35 70.3 °F 64.9 °F 30 in Calm   2 mph 83 % 0 in
23:37 73.9 °F 62.8 °F 30 in Calm     68 % 0 in
23:42 73.9 °F 62.8 °F 30 in SW 1.2 mph   68 % 0 in
23:45 70.3 °F 64.9 °F 30 in Calm     83 % 0 in
23:47 73.9 °F 62.8 °F 30 in SW 1.6 mph   68 % 0 in
23:52 73.9 °F 63.1 °F 30 in SW 1.6 mph 1.6 mph 69 % 0 in
23:55 70.3 °F 64.9 °F 30 in Calm     83 % 0 in
23:58 73.9 °F 63.1 °F 30 in SW 1.2 mph   69 % 0 in
Meteo Sesrovires
Elogis d' Weather Underground - 3.75 mb

Guio original per  Jim McMurry - jmcmurry@mwt.net Adaptat per a la plantilla per  Wim van der Kuil - Leuven-Template.eu

Trobareu la nostra informacio del temps tambe a:

Weather Underground

AWEKAS